createdAt,value
2018-12-10T00:00:01.823Z,24.60
2018-12-10T00:03:13.559Z,26.00
2018-12-10T00:06:20.343Z,25.33
2018-12-10T00:09:25.105Z,24.70
2018-12-10T00:12:29.818Z,25.03
2018-12-10T00:15:34.600Z,23.97
2018-12-10T00:18:39.365Z,25.07
2018-12-10T00:21:44.115Z,23.57
2018-12-10T00:24:48.844Z,22.37
2018-12-10T00:27:53.581Z,24.23
2018-12-10T00:30:58.335Z,23.20
2018-12-10T00:34:03.089Z,24.63
2018-12-10T00:37:07.827Z,24.37
2018-12-10T00:40:12.555Z,23.37
2018-12-10T00:43:17.356Z,23.80
2018-12-10T00:46:22.659Z,23.03
2018-12-10T00:49:27.521Z,24.43
2018-12-10T00:52:32.274Z,23.43
2018-12-10T00:55:37.023Z,23.10
2018-12-10T00:58:41.753Z,23.60
2018-12-10T01:01:46.459Z,25.20
2018-12-10T01:04:51.230Z,28.37
2018-12-10T01:07:55.942Z,27.10
2018-12-10T01:11:00.683Z,28.47
2018-12-10T01:14:05.421Z,26.23
2018-12-10T01:17:10.194Z,23.50
2018-12-10T01:20:14.932Z,22.97
2018-12-10T01:23:19.662Z,23.60
2018-12-10T01:26:24.388Z,22.40
2018-12-10T01:29:29.148Z,23.00
2018-12-10T01:32:33.874Z,22.70
2018-12-10T01:35:38.590Z,22.13
2018-12-10T01:38:43.375Z,21.33
2018-12-10T01:41:48.117Z,21.63
2018-12-10T01:44:52.845Z,21.57
2018-12-10T01:47:57.625Z,22.30
2018-12-10T01:51:02.366Z,21.30
2018-12-10T01:54:07.081Z,25.23
2018-12-10T01:57:11.822Z,23.80
2018-12-10T02:00:16.910Z,22.63
2018-12-10T02:03:21.677Z,21.57
2018-12-10T02:06:26.429Z,21.67
2018-12-10T02:09:31.224Z,21.17
2018-12-10T02:12:35.937Z,22.47
2018-12-10T02:15:40.695Z,22.23
2018-12-10T02:18:45.534Z,28.37
2018-12-10T02:21:50.344Z,30.00
2018-12-10T02:24:55.072Z,30.17
2018-12-10T02:27:59.872Z,27.60
2018-12-10T02:31:04.661Z,27.30
2018-12-10T02:34:09.393Z,28.30
2018-12-10T02:37:14.115Z,26.73
2018-12-10T02:40:18.844Z,26.90
2018-12-10T02:43:23.605Z,27.13
2018-12-10T02:46:28.395Z,25.63
2018-12-10T02:49:33.132Z,22.93
2018-12-10T02:52:37.835Z,24.23
2018-12-10T02:55:42.554Z,27.57
2018-12-10T02:58:47.340Z,26.43
2018-12-10T03:01:52.077Z,24.93
2018-12-10T03:04:56.826Z,22.63
2018-12-10T03:08:01.564Z,24.33
2018-12-10T03:11:06.321Z,27.27
2018-12-10T03:14:11.057Z,25.50
2018-12-10T03:17:22.362Z,25.70
2018-12-10T03:20:27.153Z,27.03
2018-12-10T03:23:31.862Z,26.87
2018-12-10T03:26:36.609Z,26.67
2018-12-10T03:29:41.331Z,27.03
2018-12-10T03:32:46.093Z,27.87
2018-12-10T03:35:50.806Z,26.97
2018-12-10T03:38:55.667Z,26.13
2018-12-10T03:42:00.393Z,26.53
2018-12-10T03:45:05.488Z,27.90
2018-12-10T03:48:10.232Z,25.50
2018-12-10T03:51:14.978Z,31.07
2018-12-10T03:54:19.713Z,29.97
2018-12-10T03:57:24.499Z,27.67
2018-12-10T04:00:29.247Z,24.40
2018-12-10T04:03:34.026Z,30.10
2018-12-10T04:06:38.799Z,27.97
2018-12-10T04:09:43.556Z,27.30
2018-12-10T04:12:48.286Z,26.30
2018-12-10T04:15:53.018Z,26.60
2018-12-10T04:18:57.765Z,27.73
2018-12-10T04:22:02.484Z,34.50
2018-12-10T04:25:07.293Z,28.70
2018-12-10T04:28:11.984Z,24.27
2018-12-10T04:31:16.733Z,28.30
2018-12-10T04:34:21.487Z,28.97
2018-12-10T04:37:26.273Z,26.97
2018-12-10T04:40:30.981Z,25.43
2018-12-10T04:43:35.708Z,26.63
2018-12-10T04:46:40.476Z,27.10
2018-12-10T04:49:45.210Z,30.57
2018-12-10T04:52:49.953Z,29.43
2018-12-10T04:55:54.679Z,35.13
2018-12-10T04:58:59.385Z,34.50
2018-12-10T05:02:04.167Z,31.33
2018-12-10T05:05:08.947Z,29.07
2018-12-10T05:08:13.663Z,28.83
2018-12-10T05:11:18.409Z,77.10
2018-12-10T05:14:23.144Z,47.50
2018-12-10T05:17:28.081Z,39.43
2018-12-10T05:20:32.905Z,55.67
2018-12-10T05:23:37.646Z,33.90
2018-12-10T05:26:42.378Z,31.97
2018-12-10T05:29:47.099Z,33.53
2018-12-10T05:32:51.821Z,39.73
2018-12-10T05:35:56.549Z,35.93
2018-12-10T05:39:01.325Z,68.57
2018-12-10T05:42:08.137Z,45.13
2018-12-10T05:45:12.874Z,43.87
2018-12-10T05:48:20.338Z,45.00
2018-12-10T05:51:24.630Z,40.93
2018-12-10T05:54:28.931Z,42.13
2018-12-10T05:57:33.262Z,41.60
2018-12-10T06:00:37.532Z,42.10
2018-12-10T06:03:41.842Z,70.00
2018-12-10T06:06:46.144Z,59.47
2018-12-10T06:09:51.240Z,56.57
2018-12-10T06:12:55.690Z,50.07
2018-12-10T06:15:59.973Z,43.57
2018-12-10T06:19:04.558Z,45.90
2018-12-10T06:22:08.867Z,41.20
2018-12-10T06:25:13.141Z,39.87
2018-12-10T06:28:17.405Z,34.87
2018-12-10T06:31:24.687Z,38.10
2018-12-10T06:34:28.968Z,36.80
2018-12-10T06:37:37.634Z,39.90
2018-12-10T06:40:39.579Z,40.60
2018-12-10T06:43:43.881Z,40.10
2018-12-10T06:46:48.171Z,39.70
2018-12-10T06:49:52.430Z,39.37
2018-12-10T06:52:56.830Z,39.73
2018-12-10T06:56:01.111Z,41.13
2018-12-10T06:59:05.452Z,41.60
2018-12-10T07:02:09.795Z,40.23
2018-12-10T07:05:14.237Z,40.40
2018-12-10T07:08:18.524Z,43.10
2018-12-10T07:11:22.864Z,43.80
2018-12-10T07:14:27.170Z,42.60
2018-12-10T07:17:31.456Z,42.80
2018-12-10T07:20:35.713Z,44.30
2018-12-10T07:23:40.012Z,47.70
2018-12-10T07:26:44.293Z,43.80
2018-12-10T07:29:48.643Z,45.93
2018-12-10T07:32:52.978Z,48.73
2018-12-10T07:35:57.261Z,47.30
2018-12-10T07:39:01.538Z,47.90
2018-12-10T07:42:07.812Z,46.07
2018-12-10T07:45:12.137Z,43.87
2018-12-10T07:48:16.472Z,31.53
2018-12-10T07:51:20.742Z,29.43
2018-12-10T07:54:25.022Z,27.87
2018-12-10T07:57:29.306Z,30.23
2018-12-10T08:00:33.686Z,32.47
2018-12-10T08:03:37.959Z,28.87
2018-12-10T08:06:42.254Z,32.03
2018-12-10T08:09:46.572Z,33.90
2018-12-10T08:12:50.924Z,38.13
2018-12-10T08:15:55.215Z,38.27
2018-12-10T08:18:59.490Z,33.67
2018-12-10T08:22:03.798Z,30.83
2018-12-10T08:25:08.394Z,30.23
2018-12-10T08:28:12.698Z,30.37
2018-12-10T08:31:17.024Z,29.63
2018-12-10T08:34:21.293Z,25.87
2018-12-10T08:37:25.571Z,27.10
2018-12-10T08:40:29.861Z,27.10
2018-12-10T08:43:34.578Z,28.70
2018-12-10T08:46:39.380Z,31.53
2018-12-10T08:49:44.157Z,29.10
2018-12-10T08:52:48.923Z,33.67
2018-12-10T08:55:53.872Z,34.90
2018-12-10T08:58:58.753Z,38.67
2018-12-10T09:02:03.602Z,37.93
2018-12-10T09:05:08.443Z,35.73
2018-12-10T09:08:13.192Z,36.53
2018-12-10T09:11:17.972Z,36.40
2018-12-10T09:14:22.722Z,42.03
2018-12-10T09:17:27.635Z,40.70
2018-12-10T09:20:32.526Z,33.17
2018-12-10T09:23:37.296Z,31.23
2018-12-10T09:26:42.035Z,32.67
2018-12-10T09:29:47.203Z,29.70
2018-12-10T09:32:51.954Z,30.60
2018-12-10T09:35:56.689Z,26.77
2018-12-10T09:39:01.533Z,29.23
2018-12-10T09:42:08.359Z,29.67
2018-12-10T09:45:13.227Z,29.17
2018-12-10T09:48:18.081Z,26.80
2018-12-10T09:51:22.815Z,27.27
2018-12-10T09:54:27.540Z,27.60
2018-12-10T09:57:32.326Z,28.10
2018-12-10T10:00:37.160Z,25.70
2018-12-10T10:03:41.948Z,24.93
2018-12-10T10:06:46.678Z,26.10
2018-12-10T10:09:51.474Z,23.77
2018-12-10T10:12:56.194Z,23.83
2018-12-10T10:16:00.980Z,25.00
2018-12-10T10:19:05.740Z,25.87
2018-12-10T10:22:10.545Z,28.23
2018-12-10T10:25:15.365Z,23.87
2018-12-10T10:28:20.095Z,24.17
2018-12-10T10:31:24.843Z,23.33
2018-12-10T10:34:29.568Z,24.37
2018-12-10T10:37:34.313Z,25.37
2018-12-10T10:40:39.049Z,25.87
2018-12-10T10:43:43.784Z,25.20
2018-12-10T10:46:48.557Z,26.07
2018-12-10T10:49:53.290Z,18.27
2018-12-10T10:52:58.026Z,20.03
2018-12-10T10:56:02.909Z,17.37
2018-12-10T10:59:07.619Z,22.13
2018-12-10T11:02:21.495Z,17.67
2018-12-10T11:05:26.268Z,17.60
2018-12-10T11:08:31.064Z,15.83
2018-12-10T11:11:35.848Z,13.77
2018-12-10T11:14:40.614Z,11.90
2018-12-10T11:17:45.355Z,9.23
2018-12-10T11:20:50.085Z,10.17
2018-12-10T11:23:54.851Z,10.97
2018-12-10T11:26:59.583Z,11.03
2018-12-10T11:30:04.520Z,10.10
2018-12-10T11:33:09.285Z,6.00
2018-12-10T11:36:14.220Z,10.10
2018-12-10T11:39:18.978Z,10.03
2018-12-10T11:42:23.693Z,7.97
2018-12-10T11:45:28.465Z,6.70
2018-12-10T11:48:33.249Z,6.37
2018-12-10T11:51:38.173Z,5.63
2018-12-10T11:54:43.358Z,6.17
2018-12-10T11:57:48.141Z,6.33
2018-12-10T12:00:52.976Z,5.57
2018-12-10T12:03:58.029Z,5.90
2018-12-10T12:07:04.844Z,4.80
2018-12-10T12:10:10.088Z,5.83
2018-12-10T12:13:14.802Z,6.70
2018-12-10T12:16:19.590Z,6.47
2018-12-10T12:19:24.286Z,7.03
2018-12-10T12:22:29.027Z,4.60
2018-12-10T12:25:33.751Z,5.77
2018-12-10T12:28:38.489Z,5.60
2018-12-10T12:31:43.197Z,5.70
2018-12-10T12:34:47.988Z,4.60
2018-12-10T12:37:52.707Z,5.37
2018-12-10T12:40:57.443Z,4.10
2018-12-10T12:44:02.187Z,3.77
2018-12-10T12:47:06.912Z,4.97
2018-12-10T12:50:12.639Z,5.13
2018-12-10T12:53:19.400Z,4.43
2018-12-10T12:56:24.253Z,5.67
2018-12-10T12:59:29.046Z,4.80
2018-12-10T13:02:33.786Z,4.50
2018-12-10T13:05:38.498Z,3.93
2018-12-10T13:08:43.237Z,3.70
2018-12-10T13:11:47.978Z,4.93
2018-12-10T13:14:52.687Z,4.10
2018-12-10T13:17:57.389Z,4.00
2018-12-10T13:21:02.173Z,5.23
2018-12-10T13:24:06.926Z,5.87
2018-12-10T13:27:11.826Z,6.10
2018-12-10T13:30:16.571Z,9.33
2018-12-10T13:33:21.404Z,6.60
2018-12-10T13:36:26.104Z,4.00
2018-12-10T13:39:30.843Z,6.40
2018-12-10T13:42:35.618Z,7.87
2018-12-10T13:45:40.483Z,4.67
2018-12-10T13:48:45.422Z,5.30
2018-12-10T13:51:50.140Z,6.77
2018-12-10T13:54:54.846Z,6.40
2018-12-10T13:57:59.574Z,4.60
2018-12-10T14:01:04.436Z,4.10
2018-12-10T14:04:14.037Z,3.87
2018-12-10T14:07:18.752Z,4.93
2018-12-10T14:10:23.527Z,4.10
2018-12-10T14:13:29.450Z,4.73
2018-12-10T14:16:34.230Z,4.60
2018-12-10T14:19:38.980Z,5.27
2018-12-10T14:22:43.739Z,4.10
2018-12-10T14:25:48.481Z,6.30
2018-12-10T14:28:53.765Z,4.20
2018-12-10T14:31:58.466Z,4.43
2018-12-10T14:35:03.238Z,6.50
2018-12-10T14:38:08.408Z,4.87
2018-12-10T14:41:13.128Z,4.53
2018-12-10T14:44:17.866Z,4.83
2018-12-10T14:47:22.609Z,4.47
2018-12-10T14:50:27.330Z,5.23
2018-12-10T14:53:32.033Z,4.20
2018-12-10T14:56:36.764Z,6.40
2018-12-10T14:59:42.398Z,4.83
2018-12-10T15:02:47.130Z,5.17
2018-12-10T15:05:51.857Z,5.57
2018-12-10T15:08:56.562Z,5.07
2018-12-10T15:12:01.335Z,5.70
2018-12-10T15:15:08.822Z,6.43
2018-12-10T15:18:13.590Z,5.53
2018-12-10T15:21:18.318Z,5.30
2018-12-10T15:24:23.089Z,4.57
2018-12-10T15:27:27.843Z,5.30
2018-12-10T15:30:32.570Z,5.00
2018-12-10T15:33:37.336Z,5.90
2018-12-10T15:36:42.092Z,6.77
2018-12-10T15:39:46.848Z,6.30
2018-12-10T15:42:51.586Z,6.60
2018-12-10T15:45:56.306Z,7.30
2018-12-10T15:49:01.026Z,6.80
2018-12-10T15:52:05.937Z,6.63
2018-12-10T15:55:10.784Z,7.00
2018-12-10T15:58:15.547Z,8.27
2018-12-10T16:01:20.295Z,7.80
2018-12-10T16:04:25.032Z,7.40
2018-12-10T16:07:29.759Z,43.17
2018-12-10T16:10:34.501Z,30.90
2018-12-10T16:13:39.328Z,98.73
2018-12-10T16:16:44.073Z,156.43
2018-12-10T16:19:48.816Z,114.43
2018-12-10T16:22:53.587Z,13.27
2018-12-10T16:25:58.548Z,16.47
2018-12-10T16:29:03.310Z,9.63
2018-12-10T16:32:08.093Z,12.20
2018-12-10T16:35:12.918Z,11.13
2018-12-10T16:38:17.755Z,9.90
2018-12-10T16:41:22.518Z,11.10
2018-12-10T16:44:27.303Z,10.27
2018-12-10T16:47:32.105Z,16.07
2018-12-10T16:50:36.884Z,10.77
2018-12-10T16:53:41.610Z,13.60
2018-12-10T16:56:47.291Z,9.47
2018-12-10T16:59:52.630Z,11.87
2018-12-10T17:02:57.383Z,12.13
2018-12-10T17:06:02.334Z,12.93
2018-12-10T17:09:11.757Z,10.90
2018-12-10T17:12:16.606Z,7.80
2018-12-10T17:15:21.520Z,7.53
2018-12-10T17:18:26.509Z,11.83
2018-12-10T17:21:31.244Z,9.47
2018-12-10T17:24:36.019Z,10.03
2018-12-10T17:27:40.778Z,7.30
2018-12-10T17:30:46.519Z,7.27
2018-12-10T17:33:51.310Z,8.93
2018-12-10T17:36:56.154Z,9.23
2018-12-10T17:40:00.934Z,9.67
2018-12-10T17:43:07.257Z,10.43
2018-12-10T17:46:12.033Z,8.90
2018-12-10T17:49:16.948Z,8.87
2018-12-10T17:52:21.708Z,7.03
2018-12-10T17:55:26.494Z,8.37
2018-12-10T17:58:31.374Z,7.87
2018-12-10T18:01:37.328Z,8.93
2018-12-10T18:04:42.093Z,7.90
2018-12-10T18:07:47.108Z,9.03
2018-12-10T18:10:51.942Z,8.60
2018-12-10T18:13:56.767Z,8.70
2018-12-10T18:17:01.486Z,10.57
2018-12-10T18:20:08.689Z,11.57
2018-12-10T18:23:13.434Z,12.37
2018-12-10T18:26:18.208Z,9.50
2018-12-10T18:29:22.937Z,8.90
2018-12-10T18:32:27.684Z,9.53
2018-12-10T18:35:32.485Z,8.23
2018-12-10T18:38:37.314Z,6.90
2018-12-10T18:41:42.044Z,7.13
2018-12-10T18:44:46.853Z,7.80
2018-12-10T18:47:51.596Z,6.77
2018-12-10T18:50:56.367Z,6.07
2018-12-10T18:54:02.246Z,7.40
2018-12-10T18:57:07.156Z,6.30
2018-12-10T19:00:13.997Z,6.47
2018-12-10T19:03:18.728Z,6.83
2018-12-10T19:06:23.598Z,6.97
2018-12-10T19:09:28.541Z,6.90
2018-12-10T19:12:33.628Z,6.60
2018-12-10T19:15:38.380Z,6.93
2018-12-10T19:18:43.222Z,6.13
2018-12-10T19:21:47.958Z,6.73
2018-12-10T19:24:52.850Z,6.13
2018-12-10T19:27:57.613Z,6.80
2018-12-10T19:31:02.363Z,5.50
2018-12-10T19:34:07.100Z,6.10
2018-12-10T19:37:11.940Z,7.30
2018-12-10T19:40:16.626Z,7.97
2018-12-10T19:43:21.697Z,7.40
2018-12-10T19:46:26.465Z,20.40
2018-12-10T19:49:31.257Z,7.77
2018-12-10T19:52:36.071Z,11.40
2018-12-10T19:55:40.998Z,10.17
2018-12-10T19:58:45.830Z,8.33
2018-12-10T20:01:50.589Z,9.50
2018-12-10T20:04:55.420Z,10.57
2018-12-10T20:08:00.207Z,9.77
2018-12-10T20:11:05.142Z,12.47
2018-12-10T20:14:09.907Z,9.47
2018-12-10T20:17:14.621Z,17.57
2018-12-10T20:20:19.373Z,18.70
2018-12-10T20:23:24.245Z,14.77
2018-12-10T20:26:29.080Z,14.00
2018-12-10T20:29:33.942Z,9.43
2018-12-10T20:32:39.896Z,21.50
2018-12-10T20:35:44.762Z,14.70
2018-12-10T20:38:49.591Z,12.00
2018-12-10T20:41:54.380Z,14.57
2018-12-10T20:44:59.094Z,8.83
2018-12-10T20:48:03.973Z,11.20
2018-12-10T20:51:08.733Z,21.07
2018-12-10T20:54:13.469Z,16.50
2018-12-10T20:57:18.215Z,11.03
2018-12-10T21:00:22.977Z,22.97
2018-12-10T21:03:27.780Z,28.90
2018-12-10T21:06:37.249Z,17.23
2018-12-10T21:09:42.031Z,10.73
2018-12-10T21:12:47.255Z,11.67
2018-12-10T21:15:52.078Z,10.77
2018-12-10T21:18:56.909Z,6.80
2018-12-10T21:22:01.730Z,7.30
2018-12-10T21:25:06.829Z,6.23
2018-12-10T21:28:11.589Z,6.27
2018-12-10T21:31:16.508Z,7.70
2018-12-10T21:34:21.265Z,7.73
2018-12-10T21:37:26.032Z,8.63
2018-12-10T21:40:30.779Z,6.73
2018-12-10T21:43:35.522Z,9.00
2018-12-10T21:46:40.402Z,5.70
2018-12-10T21:49:45.242Z,6.33
2018-12-10T21:52:49.981Z,6.73
2018-12-10T21:55:54.816Z,6.40
2018-12-10T21:58:59.594Z,6.37
2018-12-10T22:02:04.382Z,6.40
2018-12-10T22:05:09.274Z,6.57
2018-12-10T22:08:13.980Z,6.13
2018-12-10T22:11:18.701Z,7.00
2018-12-10T22:14:23.497Z,6.60
2018-12-10T22:17:28.209Z,5.03
2018-12-10T22:20:32.905Z,6.43
2018-12-10T22:23:37.694Z,5.50
2018-12-10T22:26:42.434Z,5.93
2018-12-10T22:29:47.183Z,5.73
2018-12-10T22:32:51.911Z,6.10
2018-12-10T22:35:56.645Z,5.53
2018-12-10T22:39:01.409Z,4.87
2018-12-10T22:42:08.202Z,4.50
2018-12-10T22:45:12.928Z,5.30
2018-12-10T22:48:17.656Z,4.90
2018-12-10T22:51:22.431Z,4.20
2018-12-10T22:54:27.189Z,5.20
2018-12-10T22:57:31.903Z,4.97
2018-12-10T23:00:45.501Z,4.87
2018-12-10T23:03:51.906Z,4.60
2018-12-10T23:06:56.675Z,4.80
2018-12-10T23:10:01.418Z,3.97
2018-12-10T23:13:06.386Z,4.10
2018-12-10T23:16:11.143Z,3.97
2018-12-10T23:19:15.923Z,3.93
2018-12-10T23:22:20.615Z,3.90
2018-12-10T23:25:25.334Z,3.47
2018-12-10T23:28:30.108Z,3.47
2018-12-10T23:31:34.876Z,3.70
2018-12-10T23:34:39.659Z,3.50
2018-12-10T23:37:44.412Z,3.20
2018-12-10T23:40:49.125Z,3.23
2018-12-10T23:43:53.817Z,3.43
2018-12-10T23:46:58.517Z,3.50
2018-12-10T23:50:03.307Z,3.67
2018-12-10T23:53:08.090Z,3.20
2018-12-10T23:56:12.777Z,3.00
2018-12-10T23:59:17.540Z,3.47
